sensor_id;sensor_type;location;lat;lon;timestamp;P1;durP1;ratioP1;P2;durP2;ratioP2
51724;SDS011;37801;53.224;6.552;2023-02-11T00:00:11;21.73;;;5.05;;
51724;SDS011;37801;53.224;6.552;2023-02-11T00:02:38;20.20;;;5.07;;
51724;SDS011;37801;53.224;6.552;2023-02-11T00:05:04;15.25;;;5.20;;
51724;SDS011;37801;53.224;6.552;2023-02-11T00:07:31;23.98;;;5.85;;
51724;SDS011;37801;53.224;6.552;2023-02-11T00:09:58;24.73;;;4.80;;
51724;SDS011;37801;53.224;6.552;2023-02-11T00:12:24;20.40;;;5.72;;
51724;SDS011;37801;53.224;6.552;2023-02-11T00:14:51;20.38;;;5.45;;
51724;SDS011;37801;53.224;6.552;2023-02-11T00:17:17;17.05;;;4.72;;
51724;SDS011;37801;53.224;6.552;2023-02-11T00:19:43;19.33;;;5.50;;
51724;SDS011;37801;53.224;6.552;2023-02-11T00:22:09;23.50;;;5.68;;
51724;SDS011;37801;53.224;6.552;2023-02-11T00:24:35;20.45;;;5.13;;
51724;SDS011;37801;53.224;6.552;2023-02-11T00:27:01;16.23;;;5.00;;
51724;SDS011;37801;53.224;6.552;2023-02-11T00:29:28;19.40;;;5.28;;
51724;SDS011;37801;53.224;6.552;2023-02-11T00:31:54;19.63;;;5.18;;
51724;SDS011;37801;53.224;6.552;2023-02-11T00:34:20;19.65;;;5.38;;
51724;SDS011;37801;53.224;6.552;2023-02-11T00:36:46;24.52;;;5.22;;
51724;SDS011;37801;53.224;6.552;2023-02-11T00:39:13;18.65;;;5.03;;
51724;SDS011;37801;53.224;6.552;2023-02-11T00:41:39;16.08;;;4.95;;
51724;SDS011;37801;53.224;6.552;2023-02-11T00:44:06;18.38;;;6.07;;
51724;SDS011;37801;53.224;6.552;2023-02-11T00:46:32;23.80;;;5.93;;
51724;SDS011;37801;53.224;6.552;2023-02-11T00:48:58;21.40;;;6.05;;
51724;SDS011;37801;53.224;6.552;2023-02-11T00:51:24;15.68;;;5.25;;
51724;SDS011;37801;53.224;6.552;2023-02-11T00:53:50;20.77;;;5.75;;
51724;SDS011;37801;53.224;6.552;2023-02-11T00:56:17;19.17;;;5.60;;
51724;SDS011;37801;53.224;6.552;2023-02-11T00:58:43;19.40;;;6.25;;
51724;SDS011;37801;53.224;6.552;2023-02-11T01:01:09;18.95;;;6.03;;
51724;SDS011;37801;53.224;6.552;2023-02-11T01:03:36;20.55;;;5.72;;
51724;SDS011;37801;53.224;6.552;2023-02-11T01:06:03;19.65;;;6.45;;
51724;SDS011;37801;53.224;6.552;2023-02-11T01:08:30;20.58;;;6.85;;
51724;SDS011;37801;53.224;6.552;2023-02-11T01:10:57;14.57;;;6.25;;
51724;SDS011;37801;53.224;6.552;2023-02-11T01:13:23;21.98;;;6.70;;
51724;SDS011;37801;53.224;6.552;2023-02-11T01:15:49;14.90;;;5.90;;
51724;SDS011;37801;53.224;6.552;2023-02-11T01:18:16;22.13;;;6.18;;
51724;SDS011;37801;53.224;6.552;2023-02-11T01:20:42;18.23;;;6.72;;
51724;SDS011;37801;53.224;6.552;2023-02-11T01:23:08;16.98;;;6.88;;
51724;SDS011;37801;53.224;6.552;2023-02-11T01:25:34;25.77;;;7.50;;
51724;SDS011;37801;53.224;6.552;2023-02-11T01:28:00;18.38;;;6.72;;
51724;SDS011;37801;53.224;6.552;2023-02-11T01:30:26;16.55;;;6.47;;
51724;SDS011;37801;53.224;6.552;2023-02-11T01:32:52;20.60;;;6.72;;
51724;SDS011;37801;53.224;6.552;2023-02-11T01:35:19;19.52;;;6.35;;
51724;SDS011;37801;53.224;6.552;2023-02-11T01:37:45;20.50;;;7.05;;
51724;SDS011;37801;53.224;6.552;2023-02-11T01:40:14;25.00;;;6.95;;
51724;SDS011;37801;53.224;6.552;2023-02-11T01:42:41;21.23;;;7.00;;
51724;SDS011;37801;53.224;6.552;2023-02-11T01:47:52;20.77;;;7.95;;
51724;SDS011;37801;53.224;6.552;2023-02-11T01:50:19;22.67;;;7.20;;
51724;SDS011;37801;53.224;6.552;2023-02-11T01:52:45;20.10;;;7.63;;
51724;SDS011;37801;53.224;6.552;2023-02-11T01:55:12;21.67;;;7.88;;
51724;SDS011;37801;53.224;6.552;2023-02-11T01:57:58;20.13;;;8.30;;
51724;SDS011;37801;53.224;6.552;2023-02-11T02:00:33;23.83;;;7.65;;
51724;SDS011;37801;53.224;6.552;2023-02-11T02:08:18;20.40;;;8.25;;
51724;SDS011;37801;53.224;6.552;2023-02-11T02:10:50;21.55;;;7.90;;
51724;SDS011;37801;53.224;6.552;2023-02-11T02:13:20;22.00;;;8.02;;
51724;SDS011;37801;53.224;6.552;2023-02-11T02:15:50;22.17;;;7.88;;
51724;SDS011;37801;53.224;6.552;2023-02-11T02:31:25;19.50;;;8.82;;
51724;SDS011;37801;53.224;6.552;2023-02-11T02:34:02;22.55;;;7.80;;
51724;SDS011;37801;53.224;6.552;2023-02-11T02:36:46;23.10;;;8.88;;
51724;SDS011;37801;53.224;6.552;2023-02-11T02:39:19;21.35;;;8.75;;
51724;SDS011;37801;53.224;6.552;2023-02-11T02:41:47;18.92;;;8.48;;
51724;SDS011;37801;53.224;6.552;2023-02-11T02:44:13;20.42;;;7.80;;
51724;SDS011;37801;53.224;6.552;2023-02-11T02:46:40;18.17;;;8.25;;
51724;SDS011;37801;53.224;6.552;2023-02-11T02:49:09;21.13;;;8.75;;
51724;SDS011;37801;53.224;6.552;2023-02-11T02:56:38;22.92;;;9.68;;
51724;SDS011;37801;53.224;6.552;2023-02-11T02:59:11;20.08;;;9.10;;
51724;SDS011;37801;53.224;6.552;2023-02-11T03:06:56;28.77;;;10.25;;
51724;SDS011;37801;53.224;6.552;2023-02-11T03:09:36;23.30;;;10.18;;
51724;SDS011;37801;53.224;6.552;2023-02-11T03:12:04;24.67;;;10.35;;
51724;SDS011;37801;53.224;6.552;2023-02-11T03:14:31;26.83;;;10.63;;
51724;SDS011;37801;53.224;6.552;2023-02-11T03:16:58;24.08;;;10.18;;
51724;SDS011;37801;53.224;6.552;2023-02-11T03:19:28;27.67;;;10.95;;
51724;SDS011;37801;53.224;6.552;2023-02-11T03:21:55;22.63;;;10.70;;
51724;SDS011;37801;53.224;6.552;2023-02-11T03:24:32;25.52;;;10.43;;
51724;SDS011;37801;53.224;6.552;2023-02-11T03:27:09;26.60;;;11.35;;
51724;SDS011;37801;53.224;6.552;2023-02-11T03:32:24;21.17;;;10.07;;
51724;SDS011;37801;53.224;6.552;2023-02-11T03:37:28;20.05;;;10.82;;
51724;SDS011;37801;53.224;6.552;2023-02-11T03:39:58;21.25;;;10.55;;
51724;SDS011;37801;53.224;6.552;2023-02-11T03:42:27;25.38;;;11.55;;
51724;SDS011;37801;53.224;6.552;2023-02-11T03:44:59;22.95;;;12.45;;
51724;SDS011;37801;53.224;6.552;2023-02-11T03:47:28;28.98;;;10.88;;
51724;SDS011;37801;53.224;6.552;2023-02-11T03:49:55;25.17;;;12.00;;
51724;SDS011;37801;53.224;6.552;2023-02-11T03:52:22;23.52;;;11.65;;
51724;SDS011;37801;53.224;6.552;2023-02-11T03:54:50;28.52;;;13.50;;
51724;SDS011;37801;53.224;6.552;2023-02-11T03:57:18;25.70;;;11.65;;
51724;SDS011;37801;53.224;6.552;2023-02-11T03:59:55;23.17;;;12.35;;
51724;SDS011;37801;53.224;6.552;2023-02-11T04:02:22;24.08;;;12.50;;
51724;SDS011;37801;53.224;6.552;2023-02-11T04:04:49;31.13;;;13.02;;
51724;SDS011;37801;53.224;6.552;2023-02-11T04:07:15;23.42;;;12.18;;
51724;SDS011;37801;53.224;6.552;2023-02-11T04:09:42;25.35;;;13.25;;
51724;SDS011;37801;53.224;6.552;2023-02-11T04:12:08;26.23;;;13.18;;
51724;SDS011;37801;53.224;6.552;2023-02-11T04:14:34;26.90;;;13.20;;
51724;SDS011;37801;53.224;6.552;2023-02-11T04:17:01;27.63;;;13.75;;
51724;SDS011;37801;53.224;6.552;2023-02-11T04:19:27;24.45;;;14.18;;
51724;SDS011;37801;53.224;6.552;2023-02-11T04:21:53;27.50;;;14.20;;
51724;SDS011;37801;53.224;6.552;2023-02-11T04:24:19;34.30;;;15.50;;
51724;SDS011;37801;53.224;6.552;2023-02-11T04:26:45;25.20;;;13.75;;
51724;SDS011;37801;53.224;6.552;2023-02-11T04:29:11;32.30;;;14.82;;
51724;SDS011;37801;53.224;6.552;2023-02-11T04:31:37;25.90;;;14.63;;
51724;SDS011;37801;53.224;6.552;2023-02-11T04:34:04;29.65;;;15.00;;
51724;SDS011;37801;53.224;6.552;2023-02-11T04:36:30;27.10;;;14.70;;
51724;SDS011;37801;53.224;6.552;2023-02-11T04:38:56;29.42;;;15.65;;
51724;SDS011;37801;53.224;6.552;2023-02-11T04:41:22;24.95;;;13.70;;
51724;SDS011;37801;53.224;6.552;2023-02-11T04:43:48;30.05;;;15.52;;
51724;SDS011;37801;53.224;6.552;2023-02-11T04:46:14;28.33;;;14.20;;
51724;SDS011;37801;53.224;6.552;2023-02-11T04:48:40;27.73;;;14.98;;
51724;SDS011;37801;53.224;6.552;2023-02-11T04:51:06;30.23;;;14.88;;
51724;SDS011;37801;53.224;6.552;2023-02-11T04:53:33;25.63;;;14.38;;
51724;SDS011;37801;53.224;6.552;2023-02-11T04:55:59;24.52;;;14.35;;
51724;SDS011;37801;53.224;6.552;2023-02-11T04:58:25;28.33;;;14.73;;
51724;SDS011;37801;53.224;6.552;2023-02-11T05:00:51;25.77;;;14.13;;
51724;SDS011;37801;53.224;6.552;2023-02-11T05:03:17;21.75;;;13.93;;
51724;SDS011;37801;53.224;6.552;2023-02-11T05:05:43;28.05;;;14.55;;
51724;SDS011;37801;53.224;6.552;2023-02-11T05:08:11;24.73;;;14.15;;
51724;SDS011;37801;53.224;6.552;2023-02-11T05:10:37;27.15;;;14.45;;
51724;SDS011;37801;53.224;6.552;2023-02-11T05:13:03;24.52;;;14.60;;
51724;SDS011;37801;53.224;6.552;2023-02-11T05:15:30;24.95;;;14.48;;
51724;SDS011;37801;53.224;6.552;2023-02-11T05:17:56;27.55;;;15.00;;
51724;SDS011;37801;53.224;6.552;2023-02-11T05:20:22;24.75;;;14.20;;
51724;SDS011;37801;53.224;6.552;2023-02-11T05:22:48;28.30;;;14.88;;
51724;SDS011;37801;53.224;6.552;2023-02-11T05:25:14;28.17;;;15.23;;
51724;SDS011;37801;53.224;6.552;2023-02-11T05:27:40;27.45;;;14.93;;
51724;SDS011;37801;53.224;6.552;2023-02-11T05:30:07;25.13;;;15.13;;
51724;SDS011;37801;53.224;6.552;2023-02-11T05:32:33;28.15;;;15.00;;
51724;SDS011;37801;53.224;6.552;2023-02-11T05:34:59;28.10;;;15.30;;
51724;SDS011;37801;53.224;6.552;2023-02-11T05:37:25;27.98;;;15.93;;
51724;SDS011;37801;53.224;6.552;2023-02-11T05:39:52;25.85;;;14.90;;
51724;SDS011;37801;53.224;6.552;2023-02-11T05:42:18;26.55;;;15.43;;
51724;SDS011;37801;53.224;6.552;2023-02-11T05:44:44;22.67;;;13.88;;
51724;SDS011;37801;53.224;6.552;2023-02-11T05:47:10;26.45;;;15.18;;
51724;SDS011;37801;53.224;6.552;2023-02-11T05:49:36;27.90;;;14.32;;
51724;SDS011;37801;53.224;6.552;2023-02-11T05:52:02;24.98;;;13.35;;
51724;SDS011;37801;53.224;6.552;2023-02-11T05:54:28;25.23;;;14.15;;
51724;SDS011;37801;53.224;6.552;2023-02-11T05:56:55;22.55;;;13.52;;
51724;SDS011;37801;53.224;6.552;2023-02-11T05:59:21;27.58;;;14.27;;
51724;SDS011;37801;53.224;6.552;2023-02-11T06:01:47;22.75;;;13.10;;
51724;SDS011;37801;53.224;6.552;2023-02-11T06:04:13;24.35;;;13.55;;
51724;SDS011;37801;53.224;6.552;2023-02-11T06:06:39;24.63;;;13.25;;
51724;SDS011;37801;53.224;6.552;2023-02-11T06:09:05;27.63;;;13.85;;
51724;SDS011;37801;53.224;6.552;2023-02-11T06:11:31;27.15;;;13.55;;
51724;SDS011;37801;53.224;6.552;2023-02-11T06:13:57;22.70;;;12.88;;
51724;SDS011;37801;53.224;6.552;2023-02-11T06:16:24;20.65;;;11.95;;
51724;SDS011;37801;53.224;6.552;2023-02-11T06:18:50;24.30;;;13.27;;
51724;SDS011;37801;53.224;6.552;2023-02-11T06:21:16;26.13;;;13.40;;
51724;SDS011;37801;53.224;6.552;2023-02-11T06:23:42;22.77;;;12.85;;
51724;SDS011;37801;53.224;6.552;2023-02-11T06:26:09;20.83;;;12.70;;
51724;SDS011;37801;53.224;6.552;2023-02-11T06:28:40;25.58;;;12.80;;
51724;SDS011;37801;53.224;6.552;2023-02-11T06:31:06;22.48;;;12.27;;
51724;SDS011;37801;53.224;6.552;2023-02-11T06:33:33;21.52;;;12.25;;
51724;SDS011;37801;53.224;6.552;2023-02-11T06:36:00;20.80;;;12.40;;
51724;SDS011;37801;53.224;6.552;2023-02-11T06:38:26;24.52;;;13.05;;
51724;SDS011;37801;53.224;6.552;2023-02-11T06:40:52;24.98;;;14.32;;
51724;SDS011;37801;53.224;6.552;2023-02-11T06:43:18;22.77;;;12.98;;
51724;SDS011;37801;53.224;6.552;2023-02-11T06:45:44;25.13;;;13.23;;
51724;SDS011;37801;53.224;6.552;2023-02-11T06:48:16;22.13;;;12.88;;
51724;SDS011;37801;53.224;6.552;2023-02-11T06:50:42;27.42;;;14.43;;
51724;SDS011;37801;53.224;6.552;2023-02-11T06:53:09;23.73;;;13.07;;
51724;SDS011;37801;53.224;6.552;2023-02-11T06:55:35;21.73;;;11.85;;
51724;SDS011;37801;53.224;6.552;2023-02-11T06:58:01;23.92;;;12.13;;
51724;SDS011;37801;53.224;6.552;2023-02-11T07:00:27;27.77;;;13.73;;
51724;SDS011;37801;53.224;6.552;2023-02-11T07:02:53;24.80;;;13.02;;
51724;SDS011;37801;53.224;6.552;2023-02-11T07:05:20;26.55;;;12.30;;
51724;SDS011;37801;53.224;6.552;2023-02-11T07:07:46;23.60;;;12.63;;
51724;SDS011;37801;53.224;6.552;2023-02-11T07:10:12;25.23;;;13.15;;
51724;SDS011;37801;53.224;6.552;2023-02-11T07:12:38;23.30;;;12.77;;
51724;SDS011;37801;53.224;6.552;2023-02-11T07:15:05;21.92;;;12.57;;
51724;SDS011;37801;53.224;6.552;2023-02-11T07:17:32;24.40;;;13.13;;
51724;SDS011;37801;53.224;6.552;2023-02-11T07:19:59;21.27;;;13.27;;
51724;SDS011;37801;53.224;6.552;2023-02-11T07:22:25;23.25;;;12.10;;
51724;SDS011;37801;53.224;6.552;2023-02-11T07:24:51;21.25;;;12.75;;
51724;SDS011;37801;53.224;6.552;2023-02-11T07:27:17;21.67;;;13.75;;
51724;SDS011;37801;53.224;6.552;2023-02-11T07:29:43;22.23;;;12.63;;
51724;SDS011;37801;53.224;6.552;2023-02-11T07:32:11;24.35;;;13.52;;
51724;SDS011;37801;53.224;6.552;2023-02-11T07:34:37;20.60;;;12.00;;
51724;SDS011;37801;53.224;6.552;2023-02-11T07:37:03;24.55;;;12.32;;
51724;SDS011;37801;53.224;6.552;2023-02-11T07:39:30;21.48;;;12.50;;
51724;SDS011;37801;53.224;6.552;2023-02-11T07:41:56;24.35;;;12.85;;
51724;SDS011;37801;53.224;6.552;2023-02-11T07:44:22;21.48;;;12.07;;
51724;SDS011;37801;53.224;6.552;2023-02-11T07:46:48;19.73;;;11.40;;
51724;SDS011;37801;53.224;6.552;2023-02-11T07:49:15;20.40;;;11.68;;
51724;SDS011;37801;53.224;6.552;2023-02-11T07:51:41;20.80;;;12.02;;
51724;SDS011;37801;53.224;6.552;2023-02-11T07:54:07;25.13;;;12.07;;
51724;SDS011;37801;53.224;6.552;2023-02-11T07:56:33;25.58;;;12.23;;
51724;SDS011;37801;53.224;6.552;2023-02-11T07:59:00;22.30;;;12.27;;
51724;SDS011;37801;53.224;6.552;2023-02-11T08:01:27;25.73;;;12.30;;
51724;SDS011;37801;53.224;6.552;2023-02-11T08:03:54;21.27;;;11.43;;
51724;SDS011;37801;53.224;6.552;2023-02-11T08:06:21;22.02;;;11.68;;
51724;SDS011;37801;53.224;6.552;2023-02-11T08:08:48;23.77;;;11.70;;
51724;SDS011;37801;53.224;6.552;2023-02-11T08:11:15;22.75;;;11.98;;
51724;SDS011;37801;53.224;6.552;2023-02-11T08:13:42;22.27;;;11.73;;
51724;SDS011;37801;53.224;6.552;2023-02-11T08:16:09;21.52;;;11.18;;
51724;SDS011;37801;53.224;6.552;2023-02-11T08:18:41;20.80;;;11.57;;
51724;SDS011;37801;53.224;6.552;2023-02-11T08:21:08;23.50;;;11.60;;
51724;SDS011;37801;53.224;6.552;2023-02-11T08:23:35;21.30;;;10.75;;
51724;SDS011;37801;53.224;6.552;2023-02-11T08:26:02;17.52;;;10.00;;
51724;SDS011;37801;53.224;6.552;2023-02-11T08:28:28;23.38;;;10.77;;
51724;SDS011;37801;53.224;6.552;2023-02-11T08:30:54;18.27;;;9.73;;
51724;SDS011;37801;53.224;6.552;2023-02-11T08:33:20;25.67;;;10.43;;
51724;SDS011;37801;53.224;6.552;2023-02-11T08:35:46;20.23;;;10.63;;
51724;SDS011;37801;53.224;6.552;2023-02-11T08:38:12;22.60;;;11.40;;
51724;SDS011;37801;53.224;6.552;2023-02-11T08:40:38;21.52;;;11.63;;
51724;SDS011;37801;53.224;6.552;2023-02-11T08:43:05;23.50;;;10.23;;
51724;SDS011;37801;53.224;6.552;2023-02-11T08:45:31;22.23;;;9.90;;
51724;SDS011;37801;53.224;6.552;2023-02-11T08:47:57;17.40;;;8.82;;
51724;SDS011;37801;53.224;6.552;2023-02-11T08:50:23;23.50;;;9.95;;
51724;SDS011;37801;53.224;6.552;2023-02-11T08:52:51;23.23;;;9.82;;
51724;SDS011;37801;53.224;6.552;2023-02-11T08:55:18;19.20;;;9.73;;
51724;SDS011;37801;53.224;6.552;2023-02-11T08:57:44;23.00;;;9.95;;
51724;SDS011;37801;53.224;6.552;2023-02-11T09:00:10;16.98;;;9.05;;
51724;SDS011;37801;53.224;6.552;2023-02-11T09:02:36;19.77;;;9.18;;
51724;SDS011;37801;53.224;6.552;2023-02-11T09:05:03;17.25;;;8.82;;
51724;SDS011;37801;53.224;6.552;2023-02-11T09:07:30;19.27;;;8.68;;
51724;SDS011;37801;53.224;6.552;2023-02-11T09:09:56;21.10;;;9.65;;
51724;SDS011;37801;53.224;6.552;2023-02-11T09:12:22;20.13;;;9.25;;
51724;SDS011;37801;53.224;6.552;2023-02-11T09:14:48;21.75;;;9.00;;
51724;SDS011;37801;53.224;6.552;2023-02-11T09:17:14;18.67;;;8.60;;
51724;SDS011;37801;53.224;6.552;2023-02-11T09:19:40;19.88;;;9.30;;
51724;SDS011;37801;53.224;6.552;2023-02-11T09:22:06;19.40;;;8.10;;
51724;SDS011;37801;53.224;6.552;2023-02-11T09:24:33;17.63;;;8.35;;
51724;SDS011;37801;53.224;6.552;2023-02-11T09:26:59;19.95;;;8.52;;
51724;SDS011;37801;53.224;6.552;2023-02-11T09:29:25;19.10;;;8.23;;
51724;SDS011;37801;53.224;6.552;2023-02-11T09:31:51;20.02;;;8.27;;
51724;SDS011;37801;53.224;6.552;2023-02-11T09:34:17;19.77;;;8.60;;
51724;SDS011;37801;53.224;6.552;2023-02-11T09:36:43;16.20;;;8.55;;
51724;SDS011;37801;53.224;6.552;2023-02-11T09:39:13;19.65;;;7.97;;
51724;SDS011;37801;53.224;6.552;2023-02-11T09:44:26;25.65;;;8.48;;
51724;SDS011;37801;53.224;6.552;2023-02-11T09:46:54;21.50;;;8.02;;
51724;SDS011;37801;53.224;6.552;2023-02-11T09:49:22;20.75;;;8.25;;
51724;SDS011;37801;53.224;6.552;2023-02-11T09:51:52;18.42;;;7.47;;
51724;SDS011;37801;53.224;6.552;2023-02-11T09:54:21;15.82;;;7.45;;
51724;SDS011;37801;53.224;6.552;2023-02-11T09:56:48;18.50;;;7.20;;
51724;SDS011;37801;53.224;6.552;2023-02-11T09:59:15;19.13;;;7.63;;
51724;SDS011;37801;53.224;6.552;2023-02-11T10:01:46;17.60;;;7.00;;
51724;SDS011;37801;53.224;6.552;2023-02-11T10:06:51;17.02;;;6.93;;
51724;SDS011;37801;53.224;6.552;2023-02-11T10:17:17;15.18;;;6.20;;
51724;SDS011;37801;53.224;6.552;2023-02-11T10:22:29;17.10;;;6.32;;
51724;SDS011;37801;53.224;6.552;2023-02-11T10:24:57;13.63;;;5.78;;
51724;SDS011;37801;53.224;6.552;2023-02-11T10:27:31;15.70;;;5.97;;
51724;SDS011;37801;53.224;6.552;2023-02-11T10:30:19;16.02;;;5.88;;
51724;SDS011;37801;53.224;6.552;2023-02-11T10:32:51;15.90;;;6.22;;
51724;SDS011;37801;53.224;6.552;2023-02-11T10:35:21;19.67;;;6.10;;
51724;SDS011;37801;53.224;6.552;2023-02-11T10:37:47;17.98;;;5.43;;
51724;SDS011;37801;53.224;6.552;2023-02-11T10:40:18;11.52;;;5.05;;
51724;SDS011;37801;53.224;6.552;2023-02-11T10:42:46;14.85;;;5.90;;
51724;SDS011;37801;53.224;6.552;2023-02-11T10:45:18;16.17;;;4.72;;
51724;SDS011;37801;53.224;6.552;2023-02-11T10:47:46;20.65;;;6.28;;
51724;SDS011;37801;53.224;6.552;2023-02-11T10:50:34;18.88;;;5.43;;
51724;SDS011;37801;53.224;6.552;2023-02-11T10:53:17;13.68;;;4.85;;
51724;SDS011;37801;53.224;6.552;2023-02-11T10:55:52;15.45;;;4.85;;
51724;SDS011;37801;53.224;6.552;2023-02-11T10:58:22;17.77;;;4.90;;
51724;SDS011;37801;53.224;6.552;2023-02-11T11:00:52;19.33;;;4.50;;
51724;SDS011;37801;53.224;6.552;2023-02-11T11:03:19;11.52;;;3.90;;
51724;SDS011;37801;53.224;6.552;2023-02-11T11:08:15;14.73;;;3.63;;
51724;SDS011;37801;53.224;6.552;2023-02-11T11:10:46;14.45;;;3.90;;
51724;SDS011;37801;53.224;6.552;2023-02-11T11:15:48;15.00;;;3.88;;
51724;SDS011;37801;53.224;6.552;2023-02-11T11:18:31;13.13;;;3.80;;
51724;SDS011;37801;53.224;6.552;2023-02-11T11:20:57;16.55;;;3.15;;
51724;SDS011;37801;53.224;6.552;2023-02-11T11:23:24;16.15;;;3.92;;
51724;SDS011;37801;53.224;6.552;2023-02-11T11:28:30;15.40;;;3.83;;
51724;SDS011;37801;53.224;6.552;2023-02-11T11:30:57;12.30;;;3.58;;
51724;SDS011;37801;53.224;6.552;2023-02-11T11:33:26;13.63;;;3.83;;
51724;SDS011;37801;53.224;6.552;2023-02-11T11:38:22;15.90;;;4.03;;
51724;SDS011;37801;53.224;6.552;2023-02-11T11:41:11;15.40;;;3.38;;
51724;SDS011;37801;53.224;6.552;2023-02-11T11:43:34;12.85;;;2.83;;
51724;SDS011;37801;53.224;6.552;2023-02-11T11:46:01;16.02;;;3.15;;
51724;SDS011;37801;53.224;6.552;2023-02-11T11:48:31;12.38;;;3.58;;
51724;SDS011;37801;53.224;6.552;2023-02-11T11:51:03;13.10;;;3.00;;
51724;SDS011;37801;53.224;6.552;2023-02-11T11:54:05;18.50;;;3.42;;
51724;SDS011;37801;53.224;6.552;2023-02-11T11:56:29;16.58;;;3.38;;
51724;SDS011;37801;53.224;6.552;2023-02-11T11:58:58;15.90;;;3.20;;
51724;SDS011;37801;53.224;6.552;2023-02-11T12:07:06;14.90;;;3.33;;
51724;SDS011;37801;53.224;6.552;2023-02-11T12:12:23;95.85;;;45.08;;
51724;SDS011;37801;53.224;6.552;2023-02-11T12:17:35;32.03;;;13.38;;
51724;SDS011;37801;53.224;6.552;2023-02-11T12:22:40;31.65;;;12.68;;
51724;SDS011;37801;53.224;6.552;2023-02-11T12:32:48;20.27;;;3.75;;
51724;SDS011;37801;53.224;6.552;2023-02-11T12:38:04;15.60;;;3.05;;
51724;SDS011;37801;53.224;6.552;2023-02-11T12:40:38;16.55;;;2.65;;
51724;SDS011;37801;53.224;6.552;2023-02-11T12:43:22;13.25;;;2.42;;
51724;SDS011;37801;53.224;6.552;2023-02-11T12:53:50;14.55;;;3.00;;
51724;SDS011;37801;53.224;6.552;2023-02-11T12:56:23;12.25;;;2.60;;
51724;SDS011;37801;53.224;6.552;2023-02-11T12:58:51;18.88;;;2.90;;
51724;SDS011;37801;53.224;6.552;2023-02-11T13:01:23;13.48;;;3.05;;
51724;SDS011;37801;53.224;6.552;2023-02-11T13:04:05;12.80;;;3.20;;
51724;SDS011;37801;53.224;6.552;2023-02-11T13:06:35;14.68;;;2.75;;
51724;SDS011;37801;53.224;6.552;2023-02-11T13:09:03;25.70;;;3.30;;
51724;SDS011;37801;53.224;6.552;2023-02-11T13:11:36;11.52;;;2.58;;
51724;SDS011;37801;53.224;6.552;2023-02-11T13:14:05;19.87;;;2.67;;
51724;SDS011;37801;53.224;6.552;2023-02-11T13:16:39;10.25;;;2.33;;
51724;SDS011;37801;53.224;6.552;2023-02-11T13:24:24;16.30;;;2.55;;
51724;SDS011;37801;53.224;6.552;2023-02-11T13:26:59;17.42;;;2.72;;
51724;SDS011;37801;53.224;6.552;2023-02-11T13:29:30;11.55;;;2.42;;
51724;SDS011;37801;53.224;6.552;2023-02-11T13:32:19;11.02;;;2.50;;
51724;SDS011;37801;53.224;6.552;2023-02-11T13:40:00;9.98;;;2.30;;
51724;SDS011;37801;53.224;6.552;2023-02-11T13:42:27;13.15;;;2.25;;
51724;SDS011;37801;53.224;6.552;2023-02-11T13:44:54;21.00;;;3.03;;
51724;SDS011;37801;53.224;6.552;2023-02-11T13:47:41;13.02;;;2.90;;
51724;SDS011;37801;53.224;6.552;2023-02-11T13:50:07;12.02;;;2.33;;
51724;SDS011;37801;53.224;6.552;2023-02-11T13:52:35;15.05;;;2.63;;
51724;SDS011;37801;53.224;6.552;2023-02-11T13:55:14;13.63;;;2.38;;
51724;SDS011;37801;53.224;6.552;2023-02-11T13:57:45;10.55;;;2.53;;
51724;SDS011;37801;53.224;6.552;2023-02-11T14:06:14;14.88;;;2.72;;
51724;SDS011;37801;53.224;6.552;2023-02-11T14:09:05;17.15;;;2.53;;
51724;SDS011;37801;53.224;6.552;2023-02-11T14:16:31;11.98;;;2.33;;
51724;SDS011;37801;53.224;6.552;2023-02-11T14:18:57;11.43;;;2.40;;
51724;SDS011;37801;53.224;6.552;2023-02-11T14:23:51;14.70;;;2.67;;
51724;SDS011;37801;53.224;6.552;2023-02-11T14:28:47;12.57;;;2.40;;
51724;SDS011;37801;53.224;6.552;2023-02-11T14:31:20;10.07;;;2.35;;
51724;SDS011;37801;53.224;6.552;2023-02-11T14:41:40;17.63;;;2.78;;
51724;SDS011;37801;53.224;6.552;2023-02-11T14:44:12;14.77;;;2.35;;
51724;SDS011;37801;53.224;6.552;2023-02-11T14:46:42;15.05;;;2.38;;
51724;SDS011;37801;53.224;6.552;2023-02-11T14:49:11;18.15;;;3.42;;
51724;SDS011;37801;53.224;6.552;2023-02-11T14:51:39;14.13;;;2.72;;
51724;SDS011;37801;53.224;6.552;2023-02-11T14:56:36;15.25;;;2.80;;
51724;SDS011;37801;53.224;6.552;2023-02-11T14:59:12;15.65;;;2.78;;
51724;SDS011;37801;53.224;6.552;2023-02-11T15:01:40;17.50;;;2.75;;
51724;SDS011;37801;53.224;6.552;2023-02-11T15:04:49;13.02;;;2.53;;
51724;SDS011;37801;53.224;6.552;2023-02-11T15:06:56;14.63;;;2.47;;
51724;SDS011;37801;53.224;6.552;2023-02-11T15:11:53;13.38;;;2.45;;
51724;SDS011;37801;53.224;6.552;2023-02-11T15:16:50;11.25;;;2.55;;
51724;SDS011;37801;53.224;6.552;2023-02-11T15:21:52;17.33;;;3.10;;
51724;SDS011;37801;53.224;6.552;2023-02-11T15:26:54;14.32;;;2.67;;
51724;SDS011;37801;53.224;6.552;2023-02-11T15:29:22;17.55;;;2.72;;
51724;SDS011;37801;53.224;6.552;2023-02-11T15:32:01;19.73;;;3.35;;
51724;SDS011;37801;53.224;6.552;2023-02-11T15:34:28;13.32;;;2.72;;
51724;SDS011;37801;53.224;6.552;2023-02-11T15:36:55;15.30;;;2.20;;
51724;SDS011;37801;53.224;6.552;2023-02-11T15:39:38;16.63;;;2.47;;
51724;SDS011;37801;53.224;6.552;2023-02-11T15:42:15;19.55;;;2.42;;
51724;SDS011;37801;53.224;6.552;2023-02-11T15:44:41;21.55;;;4.57;;
51724;SDS011;37801;53.224;6.552;2023-02-11T15:47:08;17.05;;;3.88;;
51724;SDS011;37801;53.224;6.552;2023-02-11T15:49:35;16.73;;;3.42;;
51724;SDS011;37801;53.224;6.552;2023-02-11T15:52:01;10.77;;;2.72;;
51724;SDS011;37801;53.224;6.552;2023-02-11T15:54:27;15.45;;;2.50;;
51724;SDS011;37801;53.224;6.552;2023-02-11T15:57:03;16.17;;;3.03;;
51724;SDS011;37801;53.224;6.552;2023-02-11T15:59:37;17.67;;;2.42;;
51724;SDS011;37801;53.224;6.552;2023-02-11T16:02:04;16.67;;;2.45;;
51724;SDS011;37801;53.224;6.552;2023-02-11T16:04:31;22.30;;;3.33;;
51724;SDS011;37801;53.224;6.552;2023-02-11T16:06:57;18.42;;;2.80;;
51724;SDS011;37801;53.224;6.552;2023-02-11T16:09:25;20.95;;;4.30;;
51724;SDS011;37801;53.224;6.552;2023-02-11T16:11:56;19.98;;;6.63;;
51724;SDS011;37801;53.224;6.552;2023-02-11T16:17:04;12.25;;;2.75;;
51724;SDS011;37801;53.224;6.552;2023-02-11T16:19:32;21.98;;;3.95;;
51724;SDS011;37801;53.224;6.552;2023-02-11T16:22:00;14.73;;;4.65;;
51724;SDS011;37801;53.224;6.552;2023-02-11T16:24:28;14.98;;;3.15;;
51724;SDS011;37801;53.224;6.552;2023-02-11T16:26:56;15.60;;;2.72;;
51724;SDS011;37801;53.224;6.552;2023-02-11T16:29:27;17.77;;;3.10;;
51724;SDS011;37801;53.224;6.552;2023-02-11T16:32:03;9.48;;;2.33;;
51724;SDS011;37801;53.224;6.552;2023-02-11T16:34:30;13.70;;;2.58;;
51724;SDS011;37801;53.224;6.552;2023-02-11T16:36:56;12.10;;;2.08;;
51724;SDS011;37801;53.224;6.552;2023-02-11T16:39:22;14.38;;;2.75;;
51724;SDS011;37801;53.224;6.552;2023-02-11T16:41:49;13.23;;;2.63;;
51724;SDS011;37801;53.224;6.552;2023-02-11T16:44:15;13.57;;;2.67;;
51724;SDS011;37801;53.224;6.552;2023-02-11T16:46:42;10.57;;;2.03;;
51724;SDS011;37801;53.224;6.552;2023-02-11T16:49:09;11.52;;;2.67;;
51724;SDS011;37801;53.224;6.552;2023-02-11T16:51:39;12.45;;;2.65;;
51724;SDS011;37801;53.224;6.552;2023-02-11T16:54:06;13.98;;;2.65;;
51724;SDS011;37801;53.224;6.552;2023-02-11T16:56:32;13.18;;;2.60;;
51724;SDS011;37801;53.224;6.552;2023-02-11T16:58:58;14.48;;;2.67;;